VILK/LKO METAR and TAF weather

Enter ICAO airport designator
Station Type Date Time Source
VILK METAR 2020/01/26 00:30 UTC NOAA

VILK 260030Z 29003KT 0050 R27/0150 RMID/0150 R09/0150 FG VV/// 09/08 Q1014 NOSIG


Station Type Date Time Source
VILK Decoded METAR 2020/01/26 00:30 UTC NOAA

Lucknow / Amausi, India (VILK) 26-45N 080-53E 128M
Jan 25, 2020 - 07:30 PM EST / 2020.01.26 0030 UTC
Wind: from the WNW (290 degrees) at 3 MPH (3 KT):0
Visibility: less than 1 mile:0
Sky conditions: obscured
Weather: fog
Temperature: 48 F (9 C)
Dew Point: 46 F (8 C)
Relative Humidity: 93%
Pressure (altimeter): 29.94 in. Hg (1014 hPa)
ob: VILK 260030Z 29003KT 0050 R27/0150 RMID/0150 R09/0150 FG VV/// 09/08 Q1014 NOSIG
cycle: 0

Station Type Date Time Source
VILK TAF 2020/01/26 00:20 UTC NOAA

TAF VILK 252300Z 2600/2706 00000KT 0600 FG NSC
BECMG 2601/2603 0350 FG VV///
BECMG 2604/2606 VRB02KT 1500 BR NSC
BECMG 2607/2609 29006KT 3000 BR HZ FEW100
BECMG 2618/2620 VRB02KT 1500 BR NSC
BECMG 2700/2702 0800 MIFG FG VV///

Example: see airport list